sensor_id;sensor_type;location;lat;lon;timestamp;pressure;altitude;pressure_sealevel;temperature;humidity
34177;BME280;20450;49.074;9.158;2023-07-31T00:00:06;99760.38;;;18.88;60.94
34177;BME280;20450;49.074;9.158;2023-07-31T00:02:33;99765.84;;;18.93;60.63
34177;BME280;20450;49.074;9.158;2023-07-31T00:05:00;99768.00;;;18.86;61.21
34177;BME280;20450;49.074;9.158;2023-07-31T00:07:30;99765.00;;;18.87;61.15
34177;BME280;20450;49.074;9.158;2023-07-31T00:09:57;99762.31;;;18.97;61.09
34177;BME280;20450;49.074;9.158;2023-07-31T00:12:24;99758.75;;;18.92;60.78
34177;BME280;20450;49.074;9.158;2023-07-31T00:14:51;99757.13;;;18.49;62.07
34177;BME280;20450;49.074;9.158;2023-07-31T00:17:18;99758.81;;;18.55;62.45
34177;BME280;20450;49.074;9.158;2023-07-31T00:19:44;99755.56;;;18.63;62.28
34177;BME280;20450;49.074;9.158;2023-07-31T00:22:11;99763.94;;;18.47;62.91
34177;BME280;20450;49.074;9.158;2023-07-31T00:24:40;99759.06;;;18.54;63.49
34177;BME280;20450;49.074;9.158;2023-07-31T00:27:07;99755.19;;;18.50;62.89
34177;BME280;20450;49.074;9.158;2023-07-31T00:29:34;99755.81;;;18.25;64.01
34177;BME280;20450;49.074;9.158;2023-07-31T00:32:01;99751.69;;;18.23;64.01
34177;BME280;20450;49.074;9.158;2023-07-31T00:34:28;99754.00;;;18.04;65.02
34177;BME280;20450;49.074;9.158;2023-07-31T00:36:55;99752.78;;;17.90;65.92
34177;BME280;20450;49.074;9.158;2023-07-31T00:39:22;99754.97;;;17.88;66.06
34177;BME280;20450;49.074;9.158;2023-07-31T00:41:50;99752.50;;;17.92;65.76
34177;BME280;20450;49.074;9.158;2023-07-31T00:44:17;99752.94;;;17.79;65.78
34177;BME280;20450;49.074;9.158;2023-07-31T00:46:44;99743.66;;;17.80;66.07
34177;BME280;20450;49.074;9.158;2023-07-31T00:49:12;99744.84;;;17.89;65.07
34177;BME280;20450;49.074;9.158;2023-07-31T00:51:39;99750.41;;;17.99;64.64
34177;BME280;20450;49.074;9.158;2023-07-31T00:54:06;99756.00;;;17.82;65.33
34177;BME280;20450;49.074;9.158;2023-07-31T00:56:34;99743.91;;;17.78;65.67
34177;BME280;20450;49.074;9.158;2023-07-31T00:59:03;99737.31;;;17.74;65.75
34177;BME280;20450;49.074;9.158;2023-07-31T01:01:31;99730.31;;;17.83;65.54
34177;BME280;20450;49.074;9.158;2023-07-31T01:04:00;99729.66;;;17.71;65.83
34177;BME280;20450;49.074;9.158;2023-07-31T01:06:30;99735.44;;;17.80;65.88
34177;BME280;20450;49.074;9.158;2023-07-31T01:09:07;99740.19;;;17.89;65.39
34177;BME280;20450;49.074;9.158;2023-07-31T01:11:46;99736.56;;;18.10;65.40
34177;BME280;20450;49.074;9.158;2023-07-31T01:14:19;99731.94;;;18.11;64.62
34177;BME280;20450;49.074;9.158;2023-07-31T01:16:46;99726.00;;;17.92;65.32
34177;BME280;20450;49.074;9.158;2023-07-31T01:19:14;99723.66;;;17.74;65.76
34177;BME280;20450;49.074;9.158;2023-07-31T01:22:05;99718.03;;;17.86;65.97
34177;BME280;20450;49.074;9.158;2023-07-31T01:24:55;99716.47;;;17.95;65.37
34177;BME280;20450;49.074;9.158;2023-07-31T01:27:39;99728.31;;;18.05;65.28
34177;BME280;20450;49.074;9.158;2023-07-31T01:30:22;99715.22;;;17.76;65.82
34177;BME280;20450;49.074;9.158;2023-07-31T01:32:55;99716.69;;;17.88;65.31
34177;BME280;20450;49.074;9.158;2023-07-31T01:35:24;99711.31;;;17.98;65.43
34177;BME280;20450;49.074;9.158;2023-07-31T01:37:52;99706.31;;;17.90;65.46
34177;BME280;20450;49.074;9.158;2023-07-31T01:40:20;99706.47;;;18.10;65.26
34177;BME280;20450;49.074;9.158;2023-07-31T01:42:49;99711.84;;;17.95;65.47
34177;BME280;20450;49.074;9.158;2023-07-31T01:45:16;99701.81;;;17.74;66.27
34177;BME280;20450;49.074;9.158;2023-07-31T01:47:43;99699.41;;;17.51;67.26
34177;BME280;20450;49.074;9.158;2023-07-31T01:50:11;99699.41;;;17.51;67.70
34177;BME280;20450;49.074;9.158;2023-07-31T01:52:38;99696.09;;;17.49;67.60
34177;BME280;20450;49.074;9.158;2023-07-31T01:55:08;99699.50;;;17.61;67.50
34177;BME280;20450;49.074;9.158;2023-07-31T01:57:36;99696.69;;;17.51;67.55
34177;BME280;20450;49.074;9.158;2023-07-31T02:00:06;99694.75;;;17.51;67.78
34177;BME280;20450;49.074;9.158;2023-07-31T02:02:40;99698.59;;;17.50;67.70
34177;BME280;20450;49.074;9.158;2023-07-31T02:05:07;99700.53;;;17.33;68.17
34177;BME280;20450;49.074;9.158;2023-07-31T02:07:36;99699.75;;;17.33;68.41
34177;BME280;20450;49.074;9.158;2023-07-31T02:10:04;99691.69;;;17.43;67.77
34177;BME280;20450;49.074;9.158;2023-07-31T02:12:32;99680.78;;;17.21;68.51
34177;BME280;20450;49.074;9.158;2023-07-31T02:14:59;99682.00;;;17.35;68.65
34177;BME280;20450;49.074;9.158;2023-07-31T02:17:27;99680.53;;;17.23;68.79
34177;BME280;20450;49.074;9.158;2023-07-31T02:19:54;99670.06;;;17.15;69.02
34177;BME280;20450;49.074;9.158;2023-07-31T02:22:21;99675.00;;;17.18;68.86
34177;BME280;20450;49.074;9.158;2023-07-31T02:24:48;99673.72;;;17.25;68.86
34177;BME280;20450;49.074;9.158;2023-07-31T02:27:16;99668.56;;;17.29;68.77
34177;BME280;20450;49.074;9.158;2023-07-31T02:29:44;99666.91;;;17.28;68.71
34177;BME280;20450;49.074;9.158;2023-07-31T02:32:12;99671.09;;;17.35;68.54
34177;BME280;20450;49.074;9.158;2023-07-31T02:34:40;99668.03;;;17.32;68.73
34177;BME280;20450;49.074;9.158;2023-07-31T02:37:08;99668.63;;;17.34;68.65
34177;BME280;20450;49.074;9.158;2023-07-31T02:39:36;99660.94;;;17.31;68.70
34177;BME280;20450;49.074;9.158;2023-07-31T02:42:03;99662.69;;;17.42;68.49
34177;BME280;20450;49.074;9.158;2023-07-31T02:44:31;99661.38;;;17.44;68.38
34177;BME280;20450;49.074;9.158;2023-07-31T02:46:58;99656.31;;;17.31;68.55
34177;BME280;20450;49.074;9.158;2023-07-31T02:49:25;99647.72;;;17.18;69.01
34177;BME280;20450;49.074;9.158;2023-07-31T02:51:53;99653.31;;;17.33;68.91
34177;BME280;20450;49.074;9.158;2023-07-31T02:54:20;99658.28;;;17.36;68.72
34177;BME280;20450;49.074;9.158;2023-07-31T02:56:47;99654.91;;;17.29;68.72
34177;BME280;20450;49.074;9.158;2023-07-31T02:59:15;99659.50;;;17.50;68.17
34177;BME280;20450;49.074;9.158;2023-07-31T03:01:42;99658.44;;;17.51;67.84
34177;BME280;20450;49.074;9.158;2023-07-31T03:04:08;99655.66;;;17.46;68.01
34177;BME280;20450;49.074;9.158;2023-07-31T03:06:36;99659.75;;;17.43;68.05
34177;BME280;20450;49.074;9.158;2023-07-31T03:09:05;99666.91;;;17.28;68.76
34177;BME280;20450;49.074;9.158;2023-07-31T03:11:32;99658.00;;;17.37;68.65
34177;BME280;20450;49.074;9.158;2023-07-31T03:13:59;99661.53;;;17.38;68.54
34177;BME280;20450;49.074;9.158;2023-07-31T03:16:26;99661.53;;;17.59;68.21
34177;BME280;20450;49.074;9.158;2023-07-31T03:18:53;99652.16;;;17.50;68.31
34177;BME280;20450;49.074;9.158;2023-07-31T03:21:21;99653.19;;;17.44;68.54
34177;BME280;20450;49.074;9.158;2023-07-31T03:23:48;99655.22;;;17.32;68.72
34177;BME280;20450;49.074;9.158;2023-07-31T03:26:17;99660.09;;;17.30;68.90
34177;BME280;20450;49.074;9.158;2023-07-31T03:28:44;99646.16;;;17.53;68.63
34177;BME280;20450;49.074;9.158;2023-07-31T03:31:12;99656.41;;;17.68;68.34
34177;BME280;20450;49.074;9.158;2023-07-31T03:33:38;99649.94;;;17.79;68.16
34177;BME280;20450;49.074;9.158;2023-07-31T03:36:06;99651.72;;;17.63;68.17
34177;BME280;20450;49.074;9.158;2023-07-31T03:38:33;99652.66;;;17.47;68.70
34177;BME280;20450;49.074;9.158;2023-07-31T03:41:00;99660.63;;;17.27;69.45
34177;BME280;20450;49.074;9.158;2023-07-31T03:43:28;99664.53;;;17.36;69.41
34177;BME280;20450;49.074;9.158;2023-07-31T03:45:55;99657.25;;;17.15;69.97
34177;BME280;20450;49.074;9.158;2023-07-31T03:48:24;99658.03;;;17.16;69.83
34177;BME280;20450;49.074;9.158;2023-07-31T03:50:51;99662.19;;;17.18;69.95
34177;BME280;20450;49.074;9.158;2023-07-31T03:53:18;99649.19;;;17.30;69.64
34177;BME280;20450;49.074;9.158;2023-07-31T03:55:45;99646.09;;;17.22;69.51
34177;BME280;20450;49.074;9.158;2023-07-31T03:58:12;99644.66;;;17.14;69.65
34177;BME280;20450;49.074;9.158;2023-07-31T04:00:41;99637.56;;;16.92;70.38
34177;BME280;20450;49.074;9.158;2023-07-31T04:03:08;99641.91;;;16.88;70.77
34177;BME280;20450;49.074;9.158;2023-07-31T04:05:38;99647.84;;;16.80;70.11
34177;BME280;20450;49.074;9.158;2023-07-31T04:08:06;99653.00;;;17.03;69.39
34177;BME280;20450;49.074;9.158;2023-07-31T04:10:33;99660.09;;;17.04;69.22
34177;BME280;20450;49.074;9.158;2023-07-31T04:13:00;99657.44;;;17.09;69.26
34177;BME280;20450;49.074;9.158;2023-07-31T04:15:27;99652.31;;;17.17;68.90
34177;BME280;20450;49.074;9.158;2023-07-31T04:17:56;99657.25;;;17.15;69.01
34177;BME280;20450;49.074;9.158;2023-07-31T04:20:23;99652.50;;;17.06;69.29
34177;BME280;20450;49.074;9.158;2023-07-31T04:22:50;99653.25;;;17.01;69.77
34177;BME280;20450;49.074;9.158;2023-07-31T04:25:17;99663.91;;;17.03;69.81
34177;BME280;20450;49.074;9.158;2023-07-31T04:27:44;99655.91;;;17.18;69.31
34177;BME280;20450;49.074;9.158;2023-07-31T04:30:11;99653.31;;;17.06;69.98
34177;BME280;20450;49.074;9.158;2023-07-31T04:32:38;99652.03;;;17.14;69.42
34177;BME280;20450;49.074;9.158;2023-07-31T04:35:07;99654.97;;;17.34;68.74
34177;BME280;20450;49.074;9.158;2023-07-31T04:37:36;99646.72;;;17.29;68.63
34177;BME280;20450;49.074;9.158;2023-07-31T04:40:03;99650.00;;;17.31;69.00
34177;BME280;20450;49.074;9.158;2023-07-31T04:42:31;99653.84;;;17.56;68.26
34177;BME280;20450;49.074;9.158;2023-07-31T04:44:59;99645.06;;;17.86;67.56
34177;BME280;20450;49.074;9.158;2023-07-31T04:47:26;99647.06;;;17.96;67.05
34177;BME280;20450;49.074;9.158;2023-07-31T04:49:53;99638.50;;;17.87;67.42
34177;BME280;20450;49.074;9.158;2023-07-31T04:52:21;99647.50;;;18.19;66.94
34177;BME280;20450;49.074;9.158;2023-07-31T04:54:48;99639.81;;;18.16;66.77
34177;BME280;20450;49.074;9.158;2023-07-31T04:57:15;99649.28;;;17.99;66.24
34177;BME280;20450;49.074;9.158;2023-07-31T04:59:43;99642.72;;;18.00;66.52
34177;BME280;20450;49.074;9.158;2023-07-31T05:02:11;99634.84;;;18.08;65.93
34177;BME280;20450;49.074;9.158;2023-07-31T05:04:39;99638.88;;;18.37;65.71
34177;BME280;20450;49.074;9.158;2023-07-31T05:07:08;99639.00;;;17.79;67.15
34177;BME280;20450;49.074;9.158;2023-07-31T05:09:36;99628.09;;;17.79;66.67
34177;BME280;20450;49.074;9.158;2023-07-31T05:12:04;99625.16;;;17.54;67.12
34177;BME280;20450;49.074;9.158;2023-07-31T05:14:32;99630.94;;;17.63;67.14
34177;BME280;20450;49.074;9.158;2023-07-31T05:16:59;99623.22;;;17.54;67.50
34177;BME280;20450;49.074;9.158;2023-07-31T05:19:26;99631.28;;;17.66;66.83
34177;BME280;20450;49.074;9.158;2023-07-31T05:21:53;99621.38;;;17.60;66.73
34177;BME280;20450;49.074;9.158;2023-07-31T05:24:20;99617.09;;;17.74;66.74
34177;BME280;20450;49.074;9.158;2023-07-31T05:26:48;99620.56;;;17.59;67.15
34177;BME280;20450;49.074;9.158;2023-07-31T05:29:16;99622.63;;;17.84;66.78
34177;BME280;20450;49.074;9.158;2023-07-31T05:31:43;99626.41;;;17.78;66.62
34177;BME280;20450;49.074;9.158;2023-07-31T05:34:10;99633.28;;;17.81;66.15
34177;BME280;20450;49.074;9.158;2023-07-31T05:36:37;99630.72;;;18.06;66.10
34177;BME280;20450;49.074;9.158;2023-07-31T05:39:04;99621.63;;;17.95;66.21
34177;BME280;20450;49.074;9.158;2023-07-31T05:41:32;99627.44;;;18.04;65.95
34177;BME280;20450;49.074;9.158;2023-07-31T05:44:00;99617.94;;;18.16;65.42
34177;BME280;20450;49.074;9.158;2023-07-31T05:46:27;99627.41;;;18.45;64.54
34177;BME280;20450;49.074;9.158;2023-07-31T05:48:54;99624.22;;;18.63;64.02
34177;BME280;20450;49.074;9.158;2023-07-31T05:51:22;99622.69;;;18.87;63.08
34177;BME280;20450;49.074;9.158;2023-07-31T05:53:49;99624.94;;;19.15;62.32
34177;BME280;20450;49.074;9.158;2023-07-31T05:56:16;99632.16;;;19.41;61.38
34177;BME280;20450;49.074;9.158;2023-07-31T05:58:43;99620.63;;;19.39;61.14
34177;BME280;20450;49.074;9.158;2023-07-31T06:01:11;99614.81;;;19.16;62.31
34177;BME280;20450;49.074;9.158;2023-07-31T06:03:39;99617.63;;;19.51;61.03
34177;BME280;20450;49.074;9.158;2023-07-31T06:06:06;99615.91;;;20.30;59.09
34177;BME280;20450;49.074;9.158;2023-07-31T06:08:33;99615.00;;;20.60;57.56
34177;BME280;20450;49.074;9.158;2023-07-31T06:11:00;99622.75;;;20.38;57.78
34177;BME280;20450;49.074;9.158;2023-07-31T06:13:27;99623.47;;;20.68;57.05
34177;BME280;20450;49.074;9.158;2023-07-31T06:15:54;99630.69;;;21.13;55.90
34177;BME280;20450;49.074;9.158;2023-07-31T06:18:22;99638.47;;;22.12;54.05
34177;BME280;20450;49.074;9.158;2023-07-31T06:20:49;99641.00;;;21.70;53.75
34177;BME280;20450;49.074;9.158;2023-07-31T06:23:17;99637.97;;;21.76;52.58
34177;BME280;20450;49.074;9.158;2023-07-31T06:25:44;99637.28;;;22.23;52.60
34177;BME280;20450;49.074;9.158;2023-07-31T06:28:11;99640.75;;;22.33;51.50
34177;BME280;20450;49.074;9.158;2023-07-31T06:30:38;99631.25;;;22.44;51.00
34177;BME280;20450;49.074;9.158;2023-07-31T06:33:05;99619.69;;;21.13;55.00
34177;BME280;20450;49.074;9.158;2023-07-31T06:35:34;99624.03;;;21.24;55.10
34177;BME280;20450;49.074;9.158;2023-07-31T06:38:01;99600.38;;;20.74;56.03
34177;BME280;20450;49.074;9.158;2023-07-31T06:40:28;99611.63;;;20.83;56.60
34177;BME280;20450;49.074;9.158;2023-07-31T06:42:56;99609.44;;;20.70;56.73
34177;BME280;20450;49.074;9.158;2023-07-31T06:45:24;99605.34;;;20.72;56.86
34177;BME280;20450;49.074;9.158;2023-07-31T06:47:51;99611.63;;;20.73;56.27
34177;BME280;20450;49.074;9.158;2023-07-31T06:50:18;99614.53;;;20.43;56.80
34177;BME280;20450;49.074;9.158;2023-07-31T06:52:47;99612.25;;;20.55;56.46
34177;BME280;20450;49.074;9.158;2023-07-31T06:55:18;99601.97;;;20.17;57.26
34177;BME280;20450;49.074;9.158;2023-07-31T06:57:47;99604.56;;;20.57;57.01
34177;BME280;20450;49.074;9.158;2023-07-31T07:00:15;99610.41;;;20.40;57.10
34177;BME280;20450;49.074;9.158;2023-07-31T07:02:44;99608.13;;;20.62;57.48
34177;BME280;20450;49.074;9.158;2023-07-31T07:05:11;99602.41;;;20.54;57.07
34177;BME280;20450;49.074;9.158;2023-07-31T07:07:38;99601.31;;;20.45;57.66
34177;BME280;20450;49.074;9.158;2023-07-31T07:10:09;99599.31;;;20.70;57.00
34177;BME280;20450;49.074;9.158;2023-07-31T07:12:37;99593.31;;;20.63;56.32
34177;BME280;20450;49.074;9.158;2023-07-31T07:15:06;99589.72;;;20.68;56.63
34177;BME280;20450;49.074;9.158;2023-07-31T07:17:33;99598.56;;;20.50;56.56
34177;BME280;20450;49.074;9.158;2023-07-31T07:20:01;99584.91;;;20.30;57.69
34177;BME280;20450;49.074;9.158;2023-07-31T07:22:28;99592.53;;;20.48;57.38
34177;BME280;20450;49.074;9.158;2023-07-31T07:24:56;99602.66;;;20.57;57.07
34177;BME280;20450;49.074;9.158;2023-07-31T07:27:24;99595.28;;;20.48;57.16
34177;BME280;20450;49.074;9.158;2023-07-31T07:29:51;99603.63;;;20.86;56.91
34177;BME280;20450;49.074;9.158;2023-07-31T07:32:18;99598.50;;;21.57;55.28
34177;BME280;20450;49.074;9.158;2023-07-31T07:34:47;99597.00;;;21.75;53.45
34177;BME280;20450;49.074;9.158;2023-07-31T07:37:15;99592.84;;;22.06;53.02
34177;BME280;20450;49.074;9.158;2023-07-31T07:39:42;99600.13;;;22.20;50.96
34177;BME280;20450;49.074;9.158;2023-07-31T07:42:10;99591.22;;;22.57;51.41
34177;BME280;20450;49.074;9.158;2023-07-31T07:44:38;99603.56;;;23.20;49.41
34177;BME280;20450;49.074;9.158;2023-07-31T07:47:06;99612.69;;;24.22;47.62
34177;BME280;20450;49.074;9.158;2023-07-31T07:49:33;99614.81;;;25.06;44.70
34177;BME280;20450;49.074;9.158;2023-07-31T07:52:02;99626.09;;;26.03;42.42
34177;BME280;20450;49.074;9.158;2023-07-31T07:54:31;99619.91;;;26.06;41.88
34177;BME280;20450;49.074;9.158;2023-07-31T07:56:59;99613.03;;;26.25;41.95
34177;BME280;20450;49.074;9.158;2023-07-31T07:59:26;99593.44;;;25.91;42.82
34177;BME280;20450;49.074;9.158;2023-07-31T08:01:55;99606.09;;;25.26;42.68
34177;BME280;20450;49.074;9.158;2023-07-31T08:04:22;99592.09;;;23.82;45.83
34177;BME280;20450;49.074;9.158;2023-07-31T08:06:49;99586.97;;;24.08;45.98
34177;BME280;20450;49.074;9.158;2023-07-31T08:09:16;99593.75;;;24.15;45.97
34177;BME280;20450;49.074;9.158;2023-07-31T08:11:43;99571.78;;;24.24;46.38
34177;BME280;20450;49.074;9.158;2023-07-31T08:14:10;99573.41;;;24.25;45.46
34177;BME280;20450;49.074;9.158;2023-07-31T08:16:38;99575.34;;;23.79;47.11
34177;BME280;20450;49.074;9.158;2023-07-31T08:19:07;99581.41;;;24.53;45.72
34177;BME280;20450;49.074;9.158;2023-07-31T08:21:35;99575.44;;;24.87;44.67
34177;BME280;20450;49.074;9.158;2023-07-31T08:24:02;99570.53;;;24.57;45.18
34177;BME280;20450;49.074;9.158;2023-07-31T08:26:29;99572.06;;;24.49;44.91
34177;BME280;20450;49.074;9.158;2023-07-31T08:28:57;99572.16;;;24.85;44.90
34177;BME280;20450;49.074;9.158;2023-07-31T08:31:27;99580.09;;;25.49;43.84
34177;BME280;20450;49.074;9.158;2023-07-31T08:33:55;99570.75;;;24.60;45.06
34177;BME280;20450;49.074;9.158;2023-07-31T08:36:23;99555.81;;;24.75;44.53
34177;BME280;20450;49.074;9.158;2023-07-31T08:38:55;99552.16;;;24.25;46.32
34177;BME280;20450;49.074;9.158;2023-07-31T08:41:22;99554.41;;;23.78;46.62
34177;BME280;20450;49.074;9.158;2023-07-31T08:43:49;99570.75;;;24.20;45.89
34177;BME280;20450;49.074;9.158;2023-07-31T08:46:18;99570.38;;;24.67;45.12
34177;BME280;20450;49.074;9.158;2023-07-31T08:48:48;99560.50;;;24.07;46.32
34177;BME280;20450;49.074;9.158;2023-07-31T08:51:15;99552.34;;;23.70;47.53
34177;BME280;20450;49.074;9.158;2023-07-31T08:53:44;99550.69;;;24.01;47.19
34177;BME280;20450;49.074;9.158;2023-07-31T08:56:11;99540.44;;;23.24;47.33
34177;BME280;20450;49.074;9.158;2023-07-31T08:58:40;99547.31;;;24.04;48.22
34177;BME280;20450;49.074;9.158;2023-07-31T09:01:08;99550.50;;;24.38;45.54
34177;BME280;20450;49.074;9.158;2023-07-31T09:03:38;99545.22;;;24.68;45.17
34177;BME280;20450;49.074;9.158;2023-07-31T09:06:09;99537.13;;;24.04;46.85
34177;BME280;20450;49.074;9.158;2023-07-31T09:08:41;99535.06;;;24.37;46.23
34177;BME280;20450;49.074;9.158;2023-07-31T09:11:10;99536.25;;;24.85;45.65
34177;BME280;20450;49.074;9.158;2023-07-31T09:13:39;99537.59;;;24.06;46.79
34177;BME280;20450;49.074;9.158;2023-07-31T09:16:08;99535.25;;;24.00;47.14
34177;BME280;20450;49.074;9.158;2023-07-31T09:18:52;99540.28;;;24.25;45.49
34177;BME280;20450;49.074;9.158;2023-07-31T09:21:21;99537.53;;;24.52;44.74
34177;BME280;20450;49.074;9.158;2023-07-31T09:23:48;99527.63;;;24.24;46.04
34177;BME280;20450;49.074;9.158;2023-07-31T09:26:30;99532.41;;;24.72;45.61
34177;BME280;20450;49.074;9.158;2023-07-31T09:28:59;99536.84;;;24.95;45.02
34177;BME280;20450;49.074;9.158;2023-07-31T09:31:33;99523.50;;;24.48;46.15
34177;BME280;20450;49.074;9.158;2023-07-31T09:34:05;99518.66;;;24.81;44.72
34177;BME280;20450;49.074;9.158;2023-07-31T09:36:39;99510.00;;;24.47;45.27
34177;BME280;20450;49.074;9.158;2023-07-31T09:39:09;99513.81;;;24.10;47.12
34177;BME280;20450;49.074;9.158;2023-07-31T09:41:37;99503.41;;;23.30;48.16
34177;BME280;20450;49.074;9.158;2023-07-31T09:44:06;99497.72;;;23.21;48.75
34177;BME280;20450;49.074;9.158;2023-07-31T09:46:35;99496.47;;;23.13;48.77
34177;BME280;20450;49.074;9.158;2023-07-31T09:49:04;99501.75;;;23.61;48.06
34177;BME280;20450;49.074;9.158;2023-07-31T09:51:33;99496.28;;;24.42;47.50
34177;BME280;20450;49.074;9.158;2023-07-31T09:54:00;99506.91;;;24.75;46.30
34177;BME280;20450;49.074;9.158;2023-07-31T09:56:27;99504.81;;;25.17;45.18
34177;BME280;20450;49.074;9.158;2023-07-31T09:58:56;99507.25;;;25.32;45.04
34177;BME280;20450;49.074;9.158;2023-07-31T10:01:23;99504.19;;;25.20;45.34
34177;BME280;20450;49.074;9.158;2023-07-31T10:03:51;99492.19;;;25.02;45.91
34177;BME280;20450;49.074;9.158;2023-07-31T10:06:20;99486.81;;;24.83;45.39
34177;BME280;20450;49.074;9.158;2023-07-31T10:08:47;99492.56;;;25.75;43.91
34177;BME280;20450;49.074;9.158;2023-07-31T10:11:21;99485.84;;;25.98;43.73
34177;BME280;20450;49.074;9.158;2023-07-31T10:13:52;99486.09;;;26.83;41.88
34177;BME280;20450;49.074;9.158;2023-07-31T10:16:23;99491.81;;;27.38;40.76
34177;BME280;20450;49.074;9.158;2023-07-31T10:18:50;99500.97;;;27.05;39.32
34177;BME280;20450;49.074;9.158;2023-07-31T10:21:18;99484.16;;;27.01;39.68
34177;BME280;20450;49.074;9.158;2023-07-31T10:23:47;99491.31;;;26.94;39.51
34177;BME280;20450;49.074;9.158;2023-07-31T10:26:17;99480.25;;;26.76;40.56
34177;BME280;20450;49.074;9.158;2023-07-31T10:28:48;99486.28;;;26.87;38.77
34177;BME280;20450;49.074;9.158;2023-07-31T10:31:17;99473.53;;;26.86;39.89
34177;BME280;20450;49.074;9.158;2023-07-31T10:33:46;99469.59;;;25.44;42.29
34177;BME280;20450;49.074;9.158;2023-07-31T10:36:14;99472.28;;;25.58;41.33
34177;BME280;20450;49.074;9.158;2023-07-31T10:38:43;99462.94;;;25.45;42.63
34177;BME280;20450;49.074;9.158;2023-07-31T10:41:11;99470.91;;;25.25;42.27
34177;BME280;20450;49.074;9.158;2023-07-31T10:43:38;99462.25;;;25.70;41.17
34177;BME280;20450;49.074;9.158;2023-07-31T10:46:09;99464.91;;;25.75;41.85
34177;BME280;20450;49.074;9.158;2023-07-31T10:48:39;99464.72;;;26.02;40.96
34177;BME280;20450;49.074;9.158;2023-07-31T10:51:11;99476.81;;;26.23;40.89
34177;BME280;20450;49.074;9.158;2023-07-31T10:53:39;99462.09;;;26.06;41.13
34177;BME280;20450;49.074;9.158;2023-07-31T10:56:08;99473.53;;;25.82;40.98
34177;BME280;20450;49.074;9.158;2023-07-31T10:58:37;99476.28;;;25.74;41.13
34177;BME280;20450;49.074;9.158;2023-07-31T11:01:07;99459.59;;;25.87;41.52
34177;BME280;20450;49.074;9.158;2023-07-31T11:03:42;99473.06;;;26.11;40.88
34177;BME280;20450;49.074;9.158;2023-07-31T11:06:13;99455.63;;;25.49;41.81
34177;BME280;20450;49.074;9.158;2023-07-31T11:08:45;99453.75;;;25.36;41.63
34177;BME280;20450;49.074;9.158;2023-07-31T11:11:18;99442.81;;;25.09;42.99
34177;BME280;20450;49.074;9.158;2023-07-31T11:13:47;99457.03;;;25.38;43.12
34177;BME280;20450;49.074;9.158;2023-07-31T11:16:17;99460.53;;;25.52;41.71
34177;BME280;20450;49.074;9.158;2023-07-31T11:18:46;99462.59;;;26.64;40.05
34177;BME280;20450;49.074;9.158;2023-07-31T11:21:17;99474.88;;;26.89;39.08
34177;BME280;20450;49.074;9.158;2023-07-31T11:23:47;99464.31;;;26.43;39.33
34177;BME280;20450;49.074;9.158;2023-07-31T11:26:16;99455.69;;;26.44;39.45
34177;BME280;20450;49.074;9.158;2023-07-31T11:28:46;99454.38;;;26.33;40.22
34177;BME280;20450;49.074;9.158;2023-07-31T11:31:14;99431.97;;;26.04;40.64
34177;BME280;20450;49.074;9.158;2023-07-31T11:33:41;99440.22;;;25.96;40.34
34177;BME280;20450;49.074;9.158;2023-07-31T11:36:15;99428.03;;;27.04;39.57
34177;BME280;20450;49.074;9.158;2023-07-31T11:38:44;99442.91;;;26.91;38.90
34177;BME280;20450;49.074;9.158;2023-07-31T11:41:14;99445.47;;;27.39;38.57
34177;BME280;20450;49.074;9.158;2023-07-31T11:43:43;99436.09;;;27.69;38.35
34177;BME280;20450;49.074;9.158;2023-07-31T11:46:10;99431.38;;;27.61;37.73
34177;BME280;20450;49.074;9.158;2023-07-31T11:48:37;99431.22;;;27.66;38.81
34177;BME280;20450;49.074;9.158;2023-07-31T11:51:05;99430.31;;;27.36;38.12
34177;BME280;20450;49.074;9.158;2023-07-31T11:53:38;99414.69;;;26.80;39.41
34177;BME280;20450;49.074;9.158;2023-07-31T11:56:11;99423.78;;;26.55;39.34
34177;BME280;20450;49.074;9.158;2023-07-31T11:58:41;99402.53;;;26.17;40.35
34177;BME280;20450;49.074;9.158;2023-07-31T12:01:10;99392.50;;;25.90;41.04
34177;BME280;20450;49.074;9.158;2023-07-31T12:03:40;99397.78;;;26.00;41.48
34177;BME280;20450;49.074;9.158;2023-07-31T12:06:08;99391.50;;;25.86;41.93
34177;BME280;20450;49.074;9.158;2023-07-31T12:08:36;99394.50;;;25.98;41.11
34177;BME280;20450;49.074;9.158;2023-07-31T12:11:05;99392.44;;;26.12;41.77
34177;BME280;20450;49.074;9.158;2023-07-31T12:13:33;99385.00;;;25.91;41.51
34177;BME280;20450;49.074;9.158;2023-07-31T12:16:02;99380.66;;;25.98;41.52
34177;BME280;20450;49.074;9.158;2023-07-31T12:18:34;99384.63;;;26.23;41.41
34177;BME280;20450;49.074;9.158;2023-07-31T12:21:05;99381.19;;;26.09;41.97
34177;BME280;20450;49.074;9.158;2023-07-31T12:23:35;99374.91;;;25.86;42.12
34177;BME280;20450;49.074;9.158;2023-07-31T12:26:07;99373.72;;;25.70;42.89
34177;BME280;20450;49.074;9.158;2023-07-31T12:28:36;99375.28;;;25.54;43.18
34177;BME280;20450;49.074;9.158;2023-07-31T12:31:05;99376.69;;;25.43;43.16
34177;BME280;20450;49.074;9.158;2023-07-31T12:33:33;99361.38;;;25.37;43.19
34177;BME280;20450;49.074;9.158;2023-07-31T12:36:02;99360.41;;;25.42;43.07
34177;BME280;20450;49.074;9.158;2023-07-31T12:38:30;99366.34;;;25.57;42.91
34177;BME280;20450;49.074;9.158;2023-07-31T12:40:59;99361.78;;;25.53;43.08
34177;BME280;20450;49.074;9.158;2023-07-31T12:43:26;99371.25;;;25.60;43.02
34177;BME280;20450;49.074;9.158;2023-07-31T12:45:54;99367.88;;;25.11;42.52
34177;BME280;20450;49.074;9.158;2023-07-31T12:48:22;99364.44;;;24.83;43.23
34177;BME280;20450;49.074;9.158;2023-07-31T12:50:49;99356.63;;;24.85;43.62
34177;BME280;20450;49.074;9.158;2023-07-31T12:53:16;99357.50;;;24.94;43.82
34177;BME280;20450;49.074;9.158;2023-07-31T12:55:43;99347.47;;;24.76;44.68
34177;BME280;20450;49.074;9.158;2023-07-31T12:58:12;99338.38;;;24.75;44.36
34177;BME280;20450;49.074;9.158;2023-07-31T13:00:40;99339.88;;;24.81;44.49
34177;BME280;20450;49.074;9.158;2023-07-31T13:03:07;99333.91;;;24.88;43.58
34177;BME280;20450;49.074;9.158;2023-07-31T13:05:36;99330.25;;;24.79;44.23